KAFO/AFO METAR and TAF weather

Enter ICAO airport designator
Station Type Date Time Source
KAFO METAR 2019/02/23 16:55 UTC NOAA

KAFO 231655Z AUTO 00000KT 5SM HZ SCT029 BKN035 OVC050 M12/M15 A3006 RMK AO2


Station Type Date Time Source
KAFO Decoded METAR 2019/02/23 16:55 UTC NOAA

Station name not available
Feb 23, 2019 - 11:55 AM EST / 2019.02.23 1655 UTC
Wind: Calm:0
Visibility: 5 mile(s):0
Sky conditions: overcast
Weather: haze
Temperature: 10 F (-12 C)
Dew Point: 5 F (-15 C)
Relative Humidity: 78%
Pressure (altimeter): 30.06 in. Hg (1017 hPa)
ob: KAFO 231655Z AUTO 00000KT 5SM HZ SCT029 BKN035 OVC050 M12/M15 A3006 RMK AO2
cycle: 17

Station Type Date Time Source
KAFO TAF UTC NOAA

Error!


Example: see airport list